createdAt,value
2022-08-24T00:00:00.195Z,24.3
2022-08-24T00:01:00.213Z,24.3
2022-08-24T00:02:00.270Z,24.2
2022-08-24T00:03:00.445Z,24.2
2022-08-24T00:04:00.145Z,24.2
2022-08-24T00:05:00.322Z,24.2
2022-08-24T00:06:00.753Z,24.2
2022-08-24T00:07:00.791Z,24.2
2022-08-24T00:08:00.159Z,24.1
2022-08-24T00:09:00.158Z,24.1
2022-08-24T00:10:00.202Z,24.1
2022-08-24T00:11:00.361Z,24.1
2022-08-24T00:12:00.532Z,24.1
2022-08-24T00:13:00.163Z,24.1
2022-08-24T00:14:00.246Z,24.1
2022-08-24T00:15:00.213Z,24.1
2022-08-24T00:16:00.419Z,24.0
2022-08-24T00:17:00.693Z,24.0
2022-08-24T00:18:00.151Z,24.0
2022-08-24T00:19:00.182Z,24.0
2022-08-24T00:20:00.200Z,24.0
2022-08-24T00:21:00.368Z,24.0
2022-08-24T00:22:00.172Z,24.0
2022-08-24T00:23:00.149Z,24.0
2022-08-24T00:24:00.144Z,23.9
2022-08-24T00:25:00.185Z,23.9
2022-08-24T00:26:00.318Z,23.9
2022-08-24T00:27:00.161Z,23.9
2022-08-24T00:28:00.159Z,23.8
2022-08-24T00:29:04.194Z,23.8
2022-08-24T00:30:00.187Z,23.8
2022-08-24T00:31:00.219Z,23.8
2022-08-24T00:32:00.263Z,23.8
2022-08-24T00:33:00.505Z,23.8
2022-08-24T00:34:00.149Z,23.7
2022-08-24T00:35:00.153Z,23.7
2022-08-24T00:36:00.488Z,23.8
2022-08-24T00:37:00.189Z,23.8
2022-08-24T00:38:00.160Z,23.7
2022-08-24T00:39:00.220Z,23.7
2022-08-24T00:40:00.387Z,23.6
2022-08-24T00:41:00.450Z,23.6
2022-08-24T00:42:00.165Z,23.6
2022-08-24T00:43:01.533Z,23.6
2022-08-24T00:44:01.792Z,23.6
2022-08-24T00:45:00.198Z,23.6
2022-08-24T00:46:10.174Z,23.6
2022-08-24T00:47:03.433Z,23.6
2022-08-24T00:48:02.221Z,23.5
2022-08-24T00:49:06.961Z,23.5
2022-08-24T00:50:03.384Z,23.6
2022-08-24T00:51:03.503Z,23.6
2022-08-24T00:52:03.987Z,23.6
2022-08-24T00:53:01.908Z,23.6
2022-08-24T00:54:04.042Z,23.5
2022-08-24T00:55:10.093Z,23.4
2022-08-24T00:56:04.524Z,23.4
2022-08-24T00:57:03.130Z,23.4
2022-08-24T00:58:01.919Z,23.5
2022-08-24T00:59:03.943Z,23.5
2022-08-24T01:00:04.620Z,23.5
2022-08-24T01:01:01.745Z,23.5
2022-08-24T01:02:02.222Z,23.4
2022-08-24T01:03:01.460Z,23.4
2022-08-24T01:04:01.152Z,23.4
2022-08-24T01:05:03.234Z,23.4
2022-08-24T01:06:00.364Z,23.4
2022-08-24T01:07:00.183Z,23.4
2022-08-24T01:08:01.019Z,23.2
2022-08-24T01:09:00.167Z,23.2
2022-08-24T01:10:01.938Z,23.3
2022-08-24T01:11:02.451Z,23.3
2022-08-24T01:12:00.166Z,23.3
2022-08-24T01:13:02.100Z,23.3
2022-08-24T01:14:00.709Z,23.3
2022-08-24T01:15:01.353Z,23.3
2022-08-24T01:16:01.883Z,23.3
2022-08-24T01:17:00.183Z,23.3
2022-08-24T01:18:00.679Z,23.3
2022-08-24T01:19:00.411Z,23.3
2022-08-24T01:20:01.214Z,23.2
2022-08-24T01:21:06.554Z,23.2
2022-08-24T01:22:10.102Z,23.2
2022-08-24T01:23:00.144Z,23.2
2022-08-24T01:24:02.340Z,23.2
2022-08-24T01:25:00.198Z,23.2
2022-08-24T01:26:00.862Z,23.2
2022-08-24T01:27:00.694Z,23.2
2022-08-24T01:28:03.710Z,23.2
2022-08-24T01:29:04.001Z,23.2
2022-08-24T01:30:01.382Z,23.1
2022-08-24T01:31:00.199Z,23.1
2022-08-24T01:32:00.165Z,23.1
2022-08-24T01:33:02.391Z,23.1
2022-08-24T01:34:00.468Z,23.0
2022-08-24T01:35:00.192Z,23.0
2022-08-24T01:36:01.767Z,23.1
2022-08-24T01:37:00.674Z,23.1
2022-08-24T01:38:02.831Z,23.0
2022-08-24T01:39:04.715Z,23.0
2022-08-24T01:40:02.395Z,22.9
2022-08-24T01:41:01.152Z,22.9
2022-08-24T01:42:00.587Z,22.9
2022-08-24T01:43:00.422Z,22.9
2022-08-24T01:44:00.168Z,22.9
2022-08-24T01:45:00.642Z,22.9
2022-08-24T01:46:00.218Z,23.0
2022-08-24T01:47:01.655Z,23.0
2022-08-24T01:48:00.184Z,23.0
2022-08-24T01:49:00.400Z,23.0
2022-08-24T01:50:00.526Z,22.9
2022-08-24T01:51:00.278Z,22.9
2022-08-24T01:52:00.168Z,22.9
2022-08-24T01:53:05.447Z,22.9
2022-08-24T01:54:00.876Z,22.9
2022-08-24T01:55:00.159Z,22.9
2022-08-24T01:56:00.151Z,23.0
2022-08-24T01:57:00.329Z,23.0
2022-08-24T01:58:00.222Z,22.8
2022-08-24T01:59:00.503Z,22.8
2022-08-24T02:00:00.678Z,22.8
2022-08-24T02:01:00.209Z,22.8
2022-08-24T02:02:01.773Z,22.7
2022-08-24T02:03:00.321Z,22.7
2022-08-24T02:04:01.549Z,22.7
2022-08-24T02:05:00.193Z,22.7
2022-08-24T02:06:00.156Z,22.8
2022-08-24T02:07:00.158Z,22.8
2022-08-24T02:08:00.153Z,22.7
2022-08-24T02:09:00.210Z,22.7
2022-08-24T02:10:00.387Z,22.7
2022-08-24T02:11:00.257Z,22.7
2022-08-24T02:12:00.673Z,22.7
2022-08-24T02:13:01.590Z,22.7
2022-08-24T02:14:00.389Z,22.6
2022-08-24T02:15:00.367Z,22.6
2022-08-24T02:16:00.455Z,22.7
2022-08-24T02:17:00.235Z,22.7
2022-08-24T02:18:00.157Z,22.7
2022-08-24T02:19:00.182Z,22.7
2022-08-24T02:20:00.405Z,22.6
2022-08-24T02:21:00.237Z,22.6
2022-08-24T02:22:00.658Z,22.5
2022-08-24T02:23:00.209Z,22.5
2022-08-24T02:24:00.152Z,22.6
2022-08-24T02:25:00.296Z,22.6
2022-08-24T02:26:00.390Z,22.5
2022-08-24T02:27:00.553Z,22.5
2022-08-24T02:28:00.199Z,22.5
2022-08-24T02:29:03.853Z,22.5
2022-08-24T02:30:00.151Z,22.5
2022-08-24T02:31:00.827Z,22.5
2022-08-24T02:32:00.160Z,22.5
2022-08-24T02:33:00.318Z,22.5
2022-08-24T02:34:00.162Z,22.5
2022-08-24T02:35:00.155Z,22.5
2022-08-24T02:36:00.370Z,22.5
2022-08-24T02:37:00.153Z,22.5
2022-08-24T02:38:00.269Z,22.4
2022-08-24T02:39:00.554Z,22.4
2022-08-24T02:40:00.380Z,22.4
2022-08-24T02:41:00.222Z,22.4
2022-08-24T02:42:00.153Z,22.4
2022-08-24T02:43:00.287Z,22.4
2022-08-24T02:44:00.893Z,22.4
2022-08-24T02:45:00.209Z,22.4
2022-08-24T02:46:00.218Z,22.4
2022-08-24T02:47:00.146Z,22.4
2022-08-24T02:48:00.174Z,22.4
2022-08-24T02:49:10.646Z,22.4
2022-08-24T02:50:00.579Z,22.3
2022-08-24T02:51:00.182Z,22.3
2022-08-24T02:52:00.152Z,22.4
2022-08-24T02:53:00.223Z,22.4
2022-08-24T02:54:01.260Z,22.4
2022-08-24T02:55:00.164Z,22.4
2022-08-24T02:56:00.174Z,22.3
2022-08-24T02:57:00.211Z,22.3
2022-08-24T02:58:00.214Z,22.2
2022-08-24T02:59:00.614Z,22.2
2022-08-24T03:00:00.155Z,22.2
2022-08-24T03:01:00.208Z,22.2
2022-08-24T03:02:00.249Z,22.2
2022-08-24T03:03:00.284Z,22.2
2022-08-24T03:04:00.151Z,22.1
2022-08-24T03:05:00.159Z,22.1
2022-08-24T03:06:00.392Z,22.1
2022-08-24T03:07:00.161Z,22.1
2022-08-24T03:08:00.535Z,22.1
2022-08-24T03:09:00.149Z,22.1
2022-08-24T03:10:00.573Z,22.1
2022-08-24T03:11:00.496Z,22.1
2022-08-24T03:12:00.413Z,22.1
2022-08-24T03:13:00.238Z,22.1
2022-08-24T03:14:00.253Z,22.1
2022-08-24T03:15:00.410Z,22.1
2022-08-24T03:16:00.536Z,22.1
2022-08-24T03:17:00.210Z,22.1
2022-08-24T03:18:00.156Z,22.1
2022-08-24T03:19:00.144Z,22.1
2022-08-24T03:20:00.971Z,22.0
2022-08-24T03:21:00.635Z,22.0
2022-08-24T03:22:00.200Z,21.9
2022-08-24T03:23:00.160Z,21.9
2022-08-24T03:24:00.157Z,21.9
2022-08-24T03:25:00.171Z,21.9
2022-08-24T03:26:00.197Z,21.9
2022-08-24T03:27:00.164Z,21.9
2022-08-24T03:28:00.166Z,21.9
2022-08-24T03:29:00.175Z,21.9
2022-08-24T03:30:00.146Z,21.9
2022-08-24T03:31:00.237Z,21.9
2022-08-24T03:32:00.160Z,21.9
2022-08-24T03:33:00.277Z,21.9
2022-08-24T03:34:00.155Z,21.8
2022-08-24T03:35:00.375Z,21.8
2022-08-24T03:36:00.157Z,21.8
2022-08-24T03:37:00.471Z,21.8
2022-08-24T03:38:00.286Z,21.8
2022-08-24T03:39:00.161Z,21.8
2022-08-24T03:40:00.445Z,21.7
2022-08-24T03:41:00.155Z,21.7
2022-08-24T03:42:00.387Z,21.7
2022-08-24T03:43:00.952Z,21.7
2022-08-24T03:44:00.154Z,21.6
2022-08-24T03:45:00.325Z,21.6
2022-08-24T03:46:00.587Z,21.7
2022-08-24T03:47:00.179Z,21.7
2022-08-24T03:48:00.159Z,21.6
2022-08-24T03:49:00.155Z,21.6
2022-08-24T03:50:00.268Z,21.6
2022-08-24T03:51:00.231Z,21.6
2022-08-24T03:52:00.359Z,21.6
2022-08-24T03:53:00.229Z,21.6
2022-08-24T03:54:01.305Z,21.6
2022-08-24T03:55:01.697Z,21.6
2022-08-24T03:56:00.148Z,21.6
2022-08-24T03:57:00.162Z,21.6
2022-08-24T03:58:00.152Z,21.6
2022-08-24T03:59:00.172Z,21.6
2022-08-24T04:00:00.743Z,21.5
2022-08-24T04:01:00.670Z,21.5
2022-08-24T04:02:00.267Z,21.5
2022-08-24T04:03:00.233Z,21.5
2022-08-24T04:04:00.162Z,21.5
2022-08-24T04:05:00.153Z,21.5
2022-08-24T04:06:00.162Z,21.5
2022-08-24T04:07:00.172Z,21.5
2022-08-24T04:08:00.154Z,21.4
2022-08-24T04:09:00.155Z,21.4
2022-08-24T04:10:00.162Z,21.4
2022-08-24T04:11:00.544Z,21.4
2022-08-24T04:12:00.174Z,21.4
2022-08-24T04:13:00.171Z,21.4
2022-08-24T04:14:00.173Z,21.3
2022-08-24T04:15:00.161Z,21.3
2022-08-24T04:16:08.365Z,21.4
2022-08-24T04:17:00.572Z,21.4
2022-08-24T04:18:00.155Z,21.4
2022-08-24T04:19:00.154Z,21.4
2022-08-24T04:20:00.216Z,21.4
2022-08-24T04:21:00.606Z,21.4
2022-08-24T04:22:00.151Z,21.3
2022-08-24T04:23:00.249Z,21.3
2022-08-24T04:24:00.554Z,21.3
2022-08-24T04:25:00.162Z,21.3
2022-08-24T04:26:01.353Z,21.3
2022-08-24T04:27:00.199Z,21.3
2022-08-24T04:28:00.161Z,21.3
2022-08-24T04:29:01.312Z,21.3
2022-08-24T04:30:00.167Z,21.3
2022-08-24T04:31:02.733Z,21.3
2022-08-24T04:32:00.256Z,21.3
2022-08-24T04:33:00.195Z,21.3
2022-08-24T04:34:00.277Z,21.3
2022-08-24T04:35:00.250Z,21.3
2022-08-24T04:36:00.688Z,21.3
2022-08-24T04:37:00.671Z,21.3
2022-08-24T04:38:00.147Z,21.3
2022-08-24T04:39:00.744Z,21.3
2022-08-24T04:40:00.313Z,21.2
2022-08-24T04:41:02.080Z,21.2
2022-08-24T04:42:03.130Z,21.2
2022-08-24T04:43:00.309Z,21.2
2022-08-24T04:44:00.166Z,21.2
2022-08-24T04:45:00.170Z,21.2
2022-08-24T04:46:03.303Z,21.2
2022-08-24T04:47:00.363Z,21.2
2022-08-24T04:48:00.157Z,21.1
2022-08-24T04:49:00.143Z,21.1
2022-08-24T04:50:00.201Z,21.1
2022-08-24T04:51:01.513Z,21.1
2022-08-24T04:52:00.272Z,21.2
2022-08-24T04:53:00.563Z,21.2
2022-08-24T04:54:00.153Z,21.1
2022-08-24T04:55:00.164Z,21.1
2022-08-24T04:56:00.873Z,21.1
2022-08-24T04:57:00.164Z,21.1
2022-08-24T04:58:00.165Z,21.1
2022-08-24T04:59:00.652Z,21.1
2022-08-24T05:00:00.244Z,21.1
2022-08-24T05:01:00.228Z,21.1
2022-08-24T05:02:00.255Z,21.1
2022-08-24T05:03:00.365Z,21.1
2022-08-24T05:04:01.494Z,21.1
2022-08-24T05:05:00.323Z,21.1
2022-08-24T05:06:00.178Z,21.1
2022-08-24T05:07:00.147Z,21.1
2022-08-24T05:08:00.153Z,21.1
2022-08-24T05:09:04.453Z,21.1
2022-08-24T05:10:00.297Z,21.1
2022-08-24T05:11:03.251Z,21.1
2022-08-24T05:12:00.175Z,21.1
2022-08-24T05:13:00.239Z,21.1
2022-08-24T05:14:00.477Z,21.1
2022-08-24T05:15:00.160Z,21.1
2022-08-24T05:16:00.319Z,21.1
2022-08-24T05:17:00.327Z,21.1
2022-08-24T05:18:00.929Z,21.1
2022-08-24T05:19:00.793Z,21.1
2022-08-24T05:20:00.162Z,21.1
2022-08-24T05:21:00.271Z,21.1
2022-08-24T05:22:00.152Z,21.1
2022-08-24T05:23:03.891Z,21.1
2022-08-24T05:24:00.255Z,21.1
2022-08-24T05:25:00.283Z,21.1
2022-08-24T05:26:05.500Z,21.1
2022-08-24T05:27:00.169Z,21.1
2022-08-24T05:28:00.159Z,21.1
2022-08-24T05:29:00.720Z,21.1
2022-08-24T05:30:00.194Z,21.2
2022-08-24T05:31:08.595Z,21.2
2022-08-24T05:32:00.149Z,21.2
2022-08-24T05:33:00.237Z,21.2
2022-08-24T05:34:00.636Z,21.1
2022-08-24T05:35:00.151Z,21.1
2022-08-24T05:36:00.157Z,21.2
2022-08-24T05:37:00.148Z,21.2
2022-08-24T05:38:00.155Z,21.2
2022-08-24T05:39:01.307Z,21.2
2022-08-24T05:40:00.794Z,21.2
2022-08-24T05:41:03.701Z,21.2
2022-08-24T05:42:00.248Z,21.2
2022-08-24T05:43:00.218Z,21.2
2022-08-24T05:44:00.489Z,21.2
2022-08-24T05:45:00.295Z,21.2
2022-08-24T05:46:00.224Z,21.3
2022-08-24T05:47:00.276Z,21.3
2022-08-24T05:48:00.152Z,21.2
2022-08-24T05:49:00.526Z,21.2
2022-08-24T05:50:00.980Z,21.2
2022-08-24T05:51:00.232Z,21.2
2022-08-24T05:52:00.189Z,21.2
2022-08-24T05:53:00.226Z,21.2
2022-08-24T05:54:00.312Z,21.3
2022-08-24T05:55:00.561Z,21.3
2022-08-24T05:56:02.370Z,21.4
2022-08-24T05:57:00.173Z,21.4
2022-08-24T05:58:00.159Z,21.4
2022-08-24T05:59:00.223Z,21.4
2022-08-24T06:00:00.399Z,21.4
2022-08-24T06:01:05.181Z,21.4
2022-08-24T06:02:00.312Z,21.5
2022-08-24T06:03:00.394Z,21.5
2022-08-24T06:04:00.154Z,21.5
2022-08-24T06:05:00.163Z,21.5
2022-08-24T06:06:01.181Z,21.5
2022-08-24T06:07:00.166Z,21.5
2022-08-24T06:08:00.173Z,21.5
2022-08-24T06:09:00.408Z,21.5
2022-08-24T06:10:14.639Z,21.7
2022-08-24T06:11:00.181Z,21.7
2022-08-24T06:12:00.157Z,21.7
2022-08-24T06:13:00.264Z,21.7
2022-08-24T06:14:02.216Z,21.7
2022-08-24T06:15:00.197Z,21.7
2022-08-24T06:16:21.366Z,21.8
2022-08-24T06:17:02.163Z,21.8
2022-08-24T06:18:00.809Z,21.9
2022-08-24T06:19:00.168Z,21.9
2022-08-24T06:20:00.182Z,21.8
2022-08-24T06:21:04.505Z,21.8
2022-08-24T06:22:00.167Z,21.8
2022-08-24T06:23:00.280Z,21.8
2022-08-24T06:24:00.225Z,22.0
2022-08-24T06:25:00.163Z,22.0
2022-08-24T06:26:00.817Z,22.1
2022-08-24T06:27:00.153Z,22.1
2022-08-24T06:28:00.164Z,22.3
2022-08-24T06:29:00.342Z,22.3
2022-08-24T06:30:02.017Z,22.2
2022-08-24T06:31:01.302Z,22.2
2022-08-24T06:32:00.239Z,22.2
2022-08-24T06:33:01.107Z,22.2
2022-08-24T06:34:00.148Z,22.3
2022-08-24T06:35:00.177Z,22.3
2022-08-24T06:36:00.166Z,22.4
2022-08-24T06:37:00.149Z,22.4
2022-08-24T06:38:00.194Z,22.4
2022-08-24T06:39:00.376Z,22.4
2022-08-24T06:40:00.391Z,22.5
2022-08-24T06:41:00.449Z,22.5
2022-08-24T06:42:00.176Z,22.6
2022-08-24T06:43:00.871Z,22.6
2022-08-24T06:44:00.199Z,22.5
2022-08-24T06:45:00.160Z,22.5
2022-08-24T06:46:00.174Z,22.6
2022-08-24T06:47:00.242Z,22.6
2022-08-24T06:48:00.165Z,22.7
2022-08-24T06:49:00.164Z,22.7
2022-08-24T06:50:00.205Z,22.8
2022-08-24T06:51:00.302Z,22.8
2022-08-24T06:52:00.152Z,22.8
2022-08-24T06:53:00.350Z,22.8
2022-08-24T06:54:00.164Z,22.9
2022-08-24T06:55:00.595Z,22.9
2022-08-24T06:56:00.464Z,22.9
2022-08-24T06:57:00.156Z,22.9
2022-08-24T06:58:00.193Z,23.0
2022-08-24T06:59:00.154Z,23.0
2022-08-24T07:00:00.248Z,23.0
2022-08-24T07:01:08.893Z,23.0
2022-08-24T07:02:00.256Z,23.0
2022-08-24T07:03:00.391Z,23.0
2022-08-24T07:04:00.254Z,23.1
2022-08-24T07:05:00.167Z,23.1
2022-08-24T07:06:01.281Z,23.1
2022-08-24T07:07:00.151Z,23.1
2022-08-24T07:08:00.451Z,23.1
2022-08-24T07:09:00.178Z,23.1
2022-08-24T07:10:00.581Z,23.2
2022-08-24T07:11:00.178Z,23.2
2022-08-24T07:12:00.193Z,23.2
2022-08-24T07:13:00.272Z,23.2
2022-08-24T07:14:00.380Z,23.2
2022-08-24T07:15:00.144Z,23.2
2022-08-24T07:16:00.892Z,23.3
2022-08-24T07:17:00.149Z,23.3
2022-08-24T07:18:00.158Z,23.4
2022-08-24T07:19:00.758Z,23.4
2022-08-24T07:20:00.159Z,23.4
2022-08-24T07:21:00.569Z,23.4
2022-08-24T07:22:00.184Z,23.5
2022-08-24T07:23:00.219Z,23.5
2022-08-24T07:24:00.834Z,23.5
2022-08-24T07:25:00.152Z,23.5
2022-08-24T07:26:04.162Z,23.6
2022-08-24T07:27:00.150Z,23.6
2022-08-24T07:28:00.260Z,23.6
2022-08-24T07:29:03.252Z,23.6
2022-08-24T07:30:25.193Z,23.6
2022-08-24T07:31:00.206Z,23.6
2022-08-24T07:32:01.830Z,23.7
2022-08-24T07:33:00.177Z,23.7
2022-08-24T07:34:00.617Z,23.7
2022-08-24T07:35:00.157Z,23.7
2022-08-24T07:36:00.579Z,23.7
2022-08-24T07:37:00.178Z,23.7
2022-08-24T07:38:00.395Z,23.8
2022-08-24T07:39:00.180Z,23.8
2022-08-24T07:40:00.295Z,24.0
2022-08-24T07:41:35.370Z,24.0
2022-08-24T07:42:13.782Z,24.1
2022-08-24T07:43:00.154Z,24.1
2022-08-24T07:44:00.148Z,24.1
2022-08-24T07:45:00.526Z,24.1
2022-08-24T07:46:00.211Z,24.2
2022-08-24T07:47:15.077Z,24.2
2022-08-24T07:49:11.343Z,24.2
2022-08-24T07:50:00.203Z,24.3
2022-08-24T07:51:08.011Z,24.3
2022-08-24T07:52:00.643Z,24.3
2022-08-24T07:53:00.293Z,24.3
2022-08-24T07:54:01.061Z,24.3
2022-08-24T07:55:00.244Z,24.3
2022-08-24T07:56:00.164Z,24.4
2022-08-24T07:57:01.600Z,24.4
2022-08-24T07:58:00.198Z,24.5
2022-08-24T07:59:00.169Z,24.5
2022-08-24T08:00:00.767Z,24.5
2022-08-24T08:01:00.559Z,24.5
2022-08-24T08:02:00.289Z,24.6
2022-08-24T08:03:00.457Z,24.6
2022-08-24T08:04:00.285Z,24.7
2022-08-24T08:05:00.144Z,24.7
2022-08-24T08:06:01.120Z,24.7
2022-08-24T08:07:00.155Z,24.7
2022-08-24T08:08:00.248Z,24.8
2022-08-24T08:09:00.233Z,24.8
2022-08-24T08:10:00.529Z,24.9
2022-08-24T08:11:00.152Z,24.9
2022-08-24T08:12:00.184Z,25.0
2022-08-24T08:13:00.532Z,25.0
2022-08-24T08:14:00.218Z,25.1
2022-08-24T08:15:00.158Z,25.1
2022-08-24T08:16:01.050Z,25.4
2022-08-24T08:17:00.179Z,25.4
2022-08-24T08:18:00.158Z,25.5
2022-08-24T08:19:09.866Z,25.5
2022-08-24T08:20:00.180Z,25.5
2022-08-24T08:21:01.473Z,25.5
2022-08-24T08:22:00.160Z,25.6
2022-08-24T08:23:00.145Z,25.6
2022-08-24T08:24:00.151Z,25.6
2022-08-24T08:25:00.171Z,25.6
2022-08-24T08:26:00.152Z,25.6
2022-08-24T08:27:00.150Z,25.6
2022-08-24T08:28:07.799Z,25.7
2022-08-24T08:29:00.164Z,25.7
2022-08-24T08:30:00.490Z,25.7
2022-08-24T08:31:01.024Z,25.7
2022-08-24T08:32:00.148Z,25.8
2022-08-24T08:33:00.270Z,25.8
2022-08-24T08:34:00.166Z,25.9
2022-08-24T08:35:02.236Z,25.9
2022-08-24T08:36:03.614Z,26.0
2022-08-24T08:37:00.210Z,26.0
2022-08-24T08:38:00.310Z,26.1
2022-08-24T08:39:00.282Z,26.1
2022-08-24T08:40:00.401Z,26.2
2022-08-24T08:41:10.615Z,26.3
2022-08-24T08:42:01.139Z,26.3
2022-08-24T08:43:00.136Z,26.3
2022-08-24T08:44:01.959Z,26.4
2022-08-24T08:45:10.102Z,26.7
2022-08-24T08:46:10.139Z,26.7
2022-08-24T08:47:10.091Z,26.7
2022-08-24T08:48:10.096Z,26.7
2022-08-24T08:49:10.089Z,26.7
2022-08-24T08:50:03.412Z,26.7
2022-08-24T08:51:01.143Z,26.7
2022-08-24T08:52:00.133Z,26.7
2022-08-24T08:53:00.223Z,26.7
2022-08-24T08:54:10.101Z,26.8
2022-08-24T08:55:10.105Z,26.9
2022-08-24T08:56:10.094Z,26.9
2022-08-24T08:57:07.577Z,26.9
2022-08-24T08:58:10.096Z,27.0
2022-08-24T08:59:00.135Z,27.0
2022-08-24T09:00:07.704Z,27.1
2022-08-24T09:01:04.770Z,27.1
2022-08-24T09:02:03.436Z,27.1
2022-08-24T09:03:10.089Z,27.3
2022-08-24T09:04:00.203Z,27.3
2022-08-24T09:05:03.408Z,27.3
2022-08-24T09:06:10.098Z,27.4
2022-08-24T09:07:06.952Z,27.4
2022-08-24T09:08:06.385Z,27.5
2022-08-24T09:09:00.156Z,27.5
2022-08-24T09:10:10.114Z,27.5
2022-08-24T09:11:04.292Z,27.5
2022-08-24T09:12:01.142Z,27.5
2022-08-24T09:13:10.095Z,27.5
2022-08-24T09:14:10.090Z,27.5
2022-08-24T09:15:01.151Z,27.5
2022-08-24T09:16:10.656Z,27.6
2022-08-24T09:17:12.228Z,27.6
2022-08-24T09:18:00.273Z,27.8
2022-08-24T09:19:07.495Z,27.8
2022-08-24T09:20:01.140Z,27.8
2022-08-24T09:21:00.133Z,27.8
2022-08-24T09:22:06.181Z,27.9
2022-08-24T09:23:01.138Z,27.9
2022-08-24T09:24:10.087Z,28.0
2022-08-24T09:25:04.851Z,28.0
2022-08-24T09:26:00.132Z,28.0
2022-08-24T09:27:07.608Z,28.0
2022-08-24T09:28:10.091Z,28.1
2022-08-24T09:29:00.136Z,28.1
2022-08-24T09:30:00.167Z,28.2
2022-08-24T09:31:10.203Z,28.1
2022-08-24T09:32:10.810Z,28.1
2022-08-24T09:33:10.410Z,28.1
2022-08-24T09:34:10.097Z,28.1
2022-08-24T09:35:02.056Z,28.1
2022-08-24T09:36:00.135Z,28.3
2022-08-24T09:37:03.691Z,28.3
2022-08-24T09:38:06.318Z,28.3
2022-08-24T09:39:10.093Z,28.5
2022-08-24T09:40:02.736Z,28.5
2022-08-24T09:41:10.091Z,28.4
2022-08-24T09:42:10.093Z,28.4
2022-08-24T09:43:07.485Z,28.4
2022-08-24T09:44:03.445Z,28.6
2022-08-24T09:45:10.102Z,28.7
2022-08-24T09:46:03.439Z,28.7
2022-08-24T09:47:10.095Z,28.8
2022-08-24T09:48:16.031Z,28.8
2022-08-24T09:49:03.404Z,28.8
2022-08-24T09:50:10.093Z,29.0
2022-08-24T09:51:10.092Z,29.0
2022-08-24T09:52:00.133Z,29.0
2022-08-24T09:53:10.101Z,28.9
2022-08-24T09:54:10.281Z,28.9
2022-08-24T09:55:10.100Z,29.0
2022-08-24T09:56:00.134Z,29.0
2022-08-24T09:57:12.422Z,29.0
2022-08-24T09:58:08.586Z,29.0
2022-08-24T09:59:10.090Z,29.0
2022-08-24T10:00:06.776Z,29.0
2022-08-24T10:01:00.212Z,29.0
2022-08-24T10:02:10.173Z,29.0
2022-08-24T10:03:00.139Z,29.0
2022-08-24T10:04:06.920Z,29.2
2022-08-24T10:05:03.479Z,29.2
2022-08-24T10:06:07.929Z,29.0
2022-08-24T10:07:10.088Z,29.1
2022-08-24T10:08:10.099Z,29.1
2022-08-24T10:09:10.092Z,29.2
2022-08-24T10:10:00.160Z,29.2
2022-08-24T10:11:06.386Z,29.2
2022-08-24T10:12:06.497Z,29.2
2022-08-24T10:13:03.387Z,29.2
2022-08-24T10:14:05.385Z,29.3
2022-08-24T10:15:04.538Z,29.3
2022-08-24T10:16:10.134Z,29.4
2022-08-24T10:17:09.106Z,29.7
2022-08-24T10:18:10.087Z,29.7
2022-08-24T10:19:10.089Z,29.8
2022-08-24T10:20:00.183Z,29.8
2022-08-24T10:21:00.126Z,29.8
2022-08-24T10:22:10.087Z,29.9
2022-08-24T10:23:07.479Z,29.9
2022-08-24T10:24:01.142Z,29.8
2022-08-24T10:25:00.137Z,29.8
2022-08-24T10:26:03.014Z,29.9
2022-08-24T10:27:03.388Z,29.9
2022-08-24T10:28:01.143Z,30.0
2022-08-24T10:29:10.109Z,29.9
2022-08-24T10:30:03.424Z,29.9
2022-08-24T10:31:05.684Z,29.9
2022-08-24T10:32:00.187Z,30.0
2022-08-24T10:33:00.130Z,30.0
2022-08-24T10:34:03.396Z,30.1
2022-08-24T10:35:02.311Z,30.1
2022-08-24T10:36:10.097Z,30.2
2022-08-24T10:37:00.135Z,30.2
2022-08-24T10:38:10.092Z,30.1
2022-08-24T10:39:10.096Z,30.2
2022-08-24T10:40:10.115Z,30.2
2022-08-24T10:41:10.096Z,30.2
2022-08-24T10:42:10.675Z,30.2
2022-08-24T10:43:10.089Z,30.0
2022-08-24T10:44:10.095Z,30.0
2022-08-24T10:45:07.480Z,30.0
2022-08-24T10:46:10.213Z,30.2
2022-08-24T10:47:05.577Z,30.2
2022-08-24T10:48:10.092Z,30.2
2022-08-24T10:49:00.128Z,30.2
2022-08-24T10:50:01.141Z,30.3
2022-08-24T10:51:03.406Z,30.3
2022-08-24T10:52:10.093Z,30.5
2022-08-24T10:53:10.096Z,30.3
2022-08-24T10:54:00.359Z,30.3
2022-08-24T10:55:10.095Z,30.1
2022-08-24T10:56:01.139Z,30.1
2022-08-24T10:57:08.208Z,30.1
2022-08-24T10:58:03.566Z,30.1
2022-08-24T10:59:05.900Z,30.1
2022-08-24T11:00:01.162Z,30.4
2022-08-24T11:01:10.153Z,30.4
2022-08-24T11:02:08.431Z,30.4
2022-08-24T11:03:09.919Z,30.5
2022-08-24T11:04:03.022Z,30.5
2022-08-24T11:05:01.925Z,30.5
2022-08-24T11:06:10.090Z,30.8
2022-08-24T11:07:10.088Z,30.8
2022-08-24T11:08:02.715Z,30.8
2022-08-24T11:09:02.826Z,30.8
2022-08-24T11:10:02.036Z,30.7
2022-08-24T11:11:03.437Z,30.7
2022-08-24T11:12:10.090Z,30.9
2022-08-24T11:13:10.090Z,30.9
2022-08-24T11:14:03.203Z,30.9
2022-08-24T11:15:02.371Z,30.9
2022-08-24T11:16:01.288Z,30.8
2022-08-24T11:17:10.095Z,30.7
2022-08-24T11:18:01.799Z,30.7
2022-08-24T11:19:01.530Z,30.7
2022-08-24T11:20:00.692Z,31.0
2022-08-24T11:21:00.152Z,31.0
2022-08-24T11:22:03.347Z,31.0
2022-08-24T11:23:04.230Z,31.0
2022-08-24T11:24:03.328Z,31.0
2022-08-24T11:25:03.017Z,31.0
2022-08-24T11:26:02.240Z,30.9
2022-08-24T11:27:01.356Z,30.9
2022-08-24T11:28:05.713Z,30.9
2022-08-24T11:29:03.305Z,30.9
2022-08-24T11:30:02.566Z,30.8
2022-08-24T11:31:00.207Z,30.8
2022-08-24T11:32:00.156Z,30.9
2022-08-24T11:33:01.760Z,30.9
2022-08-24T11:34:02.197Z,30.9
2022-08-24T11:35:01.580Z,30.9
2022-08-24T11:36:00.907Z,31.0
2022-08-24T11:37:00.173Z,31.0
2022-08-24T11:38:10.092Z,31.0
2022-08-24T11:39:10.092Z,31.0
2022-08-24T11:40:00.579Z,31.0
2022-08-24T11:41:04.415Z,31.0
2022-08-24T11:42:10.091Z,31.1
2022-08-24T11:43:07.952Z,31.1
2022-08-24T11:44:00.137Z,31.3
2022-08-24T11:45:07.617Z,31.3
2022-08-24T11:46:10.092Z,31.5
2022-08-24T11:47:01.238Z,31.5
2022-08-24T11:48:03.709Z,31.5
2022-08-24T11:49:00.134Z,31.5
2022-08-24T11:50:01.143Z,31.5
2022-08-24T11:51:06.540Z,31.5
2022-08-24T11:52:03.514Z,31.8
2022-08-24T11:53:12.653Z,31.8
2022-08-24T11:54:10.090Z,31.5
2022-08-24T11:55:05.961Z,31.5
2022-08-24T11:56:10.089Z,31.7
2022-08-24T11:57:00.133Z,31.7
2022-08-24T11:58:05.268Z,32.0
2022-08-24T11:59:10.090Z,32.1
2022-08-24T12:00:10.180Z,32.1
2022-08-24T12:01:10.092Z,32.1
2022-08-24T12:02:03.957Z,32.1
2022-08-24T12:03:05.966Z,32.1
2022-08-24T12:04:10.095Z,32.3
2022-08-24T12:05:10.102Z,32.2
2022-08-24T12:06:08.265Z,32.2
2022-08-24T12:07:03.498Z,32.2
2022-08-24T12:08:08.318Z,32.4
2022-08-24T12:09:00.132Z,32.4
2022-08-24T12:10:10.165Z,32.5
2022-08-24T12:11:03.424Z,32.5
2022-08-24T12:12:05.803Z,32.4
2022-08-24T12:13:04.513Z,32.4
2022-08-24T12:14:01.141Z,32.2
2022-08-24T12:15:10.103Z,32.4
2022-08-24T12:16:06.181Z,32.4
2022-08-24T12:17:03.336Z,32.4
2022-08-24T12:18:02.181Z,32.0
2022-08-24T12:19:07.766Z,32.0
2022-08-24T12:20:04.458Z,32.2
2022-08-24T12:21:00.147Z,32.2
2022-08-24T12:22:02.496Z,32.4
2022-08-24T12:23:02.190Z,32.4
2022-08-24T12:24:03.479Z,32.0
2022-08-24T12:25:02.544Z,32.0
2022-08-24T12:26:03.365Z,32.1
2022-08-24T12:27:03.394Z,32.1
2022-08-24T12:28:00.565Z,32.4
2022-08-24T12:29:08.469Z,32.2
2022-08-24T12:30:05.346Z,32.2
2022-08-24T12:31:05.083Z,32.2
2022-08-24T12:32:03.288Z,32.2
2022-08-24T12:33:02.397Z,32.2
2022-08-24T12:34:03.341Z,32.2
2022-08-24T12:35:03.427Z,32.2
2022-08-24T12:36:01.749Z,32.2
2022-08-24T12:37:05.228Z,32.2
2022-08-24T12:38:10.087Z,32.4
2022-08-24T12:39:06.662Z,32.4
2022-08-24T12:40:11.174Z,32.2
2022-08-24T12:41:11.150Z,32.2
2022-08-24T12:42:07.472Z,32.2
2022-08-24T12:43:00.128Z,32.2
2022-08-24T12:44:05.077Z,32.1
2022-08-24T12:45:03.352Z,32.1
2022-08-24T12:46:01.183Z,32.0
2022-08-24T12:47:00.282Z,32.0
2022-08-24T12:48:10.091Z,32.1
2022-08-24T12:49:00.132Z,32.1
2022-08-24T12:50:03.747Z,32.1
2022-08-24T12:51:10.090Z,32.2
2022-08-24T12:52:01.150Z,32.2
2022-08-24T12:53:13.414Z,32.1
2022-08-24T12:54:06.112Z,32.1
2022-08-24T12:55:10.092Z,32.0
2022-08-24T12:56:06.913Z,32.0
2022-08-24T12:57:10.094Z,32.0
2022-08-24T12:58:30.980Z,32.0
2022-08-24T12:59:04.302Z,32.0
2022-08-24T13:00:05.104Z,31.7
2022-08-24T13:01:06.035Z,31.7
2022-08-24T13:02:06.452Z,31.6
2022-08-24T13:03:03.295Z,31.6
2022-08-24T13:04:03.582Z,31.7
2022-08-24T13:05:08.097Z,31.7
2022-08-24T13:06:03.778Z,31.5
2022-08-24T13:07:00.135Z,31.5
2022-08-24T13:08:08.534Z,31.5
2022-08-24T13:09:05.908Z,31.5
2022-08-24T13:10:00.170Z,31.6
2022-08-24T13:11:10.090Z,31.6
2022-08-24T13:12:10.091Z,31.6
2022-08-24T13:13:01.142Z,31.6
2022-08-24T13:14:10.090Z,31.8
2022-08-24T13:15:10.095Z,31.8
2022-08-24T13:16:01.100Z,31.8
2022-08-24T13:17:00.128Z,31.8
2022-08-24T13:18:08.000Z,31.9
2022-08-24T13:19:10.087Z,32.1